Flight Track Log - Related Links

Times and Time Zones

All times are in EST time to prevent confusion due to time zone crossing. See the C-GDBS flight status page for this flight to view local times or setup timezone preferences in your user account.

Time Position Orientation Groundspeed Altitude Reporting Facility
EST Latitude Longitude Course Direction KTS MPH feet Rate Location/Type
Tue 07:33:16 PM 42.3667 -81.9833 44° Northeast 170 196 5,000  Level Toronto Center
Tue 07:34:31 PM 42.4000 -81.9167 56° Northeast 180 207 5,000 -44 Level Toronto Center
Tue 07:35:31 PM 42.4500 -81.8500 45° Northeast 180 207 4,900  Descending Toronto Center
Tue 07:36:00 PM 42.4989 -81.8332 44° Northeast  Level FlightAware Approximate
Tue 07:37:00 PM 42.5309 -81.7915 44° Northeast  Level FlightAware Approximate
Tue 07:37:20 PM 42.5014 -81.7822 44° Northeast 146 168 5,000  Level Cleveland Center
Tue 07:38:00 PM 42.5581 -81.7440 44° Northeast  Level Estimated
Tue 07:38:22 PM 42.5383 -81.7200 51° Northeast 175 201 5,000  Level Cleveland Center
Tue 07:39:23 PM 42.5692 -81.6681 51° Northeast 175 201 5,000 49 Level Cleveland Center
Tue 07:40:25 PM 42.5992 -81.6192 50° Northeast 172 198 5,100 48 Climbing Cleveland Center
Tue 07:41:27 PM 42.6239 -81.5736 54° Northeast 173 199 5,100 -48 Level Cleveland Center
Tue 07:42:29 PM 42.6672 -81.5253 39° Northeast 175 201 5,000 -48 Descending Cleveland Center
Tue 07:43:31 PM 42.7022 -81.4786 44° Northeast 176 203 5,000  Level Cleveland Center
Tue 07:44:33 PM 42.7442 -81.4439 31° Northeast 169 194 5,000  Level Cleveland Center
Tue 07:46:25 PM 42.8000 -81.3833 39° Northeast 170 196 5,000  Level Toronto Center
Tue 07:47:25 PM 42.8500 -81.3333 36° Northeast 170 196 5,000  Level Toronto Center
Tue 07:48:25 PM 42.8833 -81.3167 20° North 170 196 5,000  Level Toronto Center
Tue 07:49:25 PM 42.9167 -81.2667 48° Northeast 170 196 5,000  Level Toronto Center
Tue 07:50:25 PM 42.9667 -81.2333 26° Northeast 170 196 5,000  Level Toronto Center
Tue 07:51:25 PM 43.0000 -81.1833 48° Northeast 170 196 5,000 50 Level Toronto Center
Tue 07:52:25 PM 43.0333 -81.1667 20° North 170 196 5,100  Climbing Toronto Center
Tue 07:53:25 PM 43.0667 -81.1167 48° Northeast 170 196 5,000 -50 Descending Toronto Center
Tue 07:54:25 PM 43.1000 -81.0667 48° Northeast 170 196 5,000  Level Toronto Center
Tue 07:55:25 PM 43.1333 -81.0333 36° Northeast 170 196 5,000  Level Toronto Center
Tue 07:56:25 PM 43.1667 -80.9833 48° Northeast 180 207 5,000  Level Toronto Center
Tue 07:57:25 PM 43.2167 -80.9333 36° Northeast 170 196 5,000 -50 Level Toronto Center
Tue 07:58:25 PM 43.2500 -80.9000 36° Northeast 170 196 4,900 50 Descending Toronto Center
Tue 07:59:25 PM 43.2833 -80.8500 48° Northeast 170 196 5,100 50 Climbing Toronto Center
Tue 08:00:25 PM 43.3333 -80.8000 36° Northeast 160 184 5,000  Descending Toronto Center
Tue 08:01:25 PM 43.3667 -80.7833 20° North 170 196 5,100 50 Climbing Toronto Center
Tue 08:02:25 PM 43.4000 -80.7333 47° Northeast 170 196 5,100  Level Toronto Center
Tue 08:03:25 PM 43.4333 -80.6833 47° Northeast 170 196 5,100 -50 Level Toronto Center
Tue 08:04:25 PM 43.4667 -80.6500 36° Northeast 170 196 5,000  Descending Toronto Center
Tue 08:05:25 PM 43.5000 -80.6000 47° Northeast 170 196 5,100  Climbing Toronto Center
Tue 08:06:25 PM 43.5333 -80.5500 47° Northeast 170 196 5,000 -100 Descending Toronto Center
Tue 08:07:25 PM 43.5667 -80.5000 47° Northeast 170 196 4,900  Descending Toronto Center
Tue 08:08:25 PM 43.6167 -80.4833 14° North 170 196 5,000 50 Climbing Toronto Center
Tue 08:09:25 PM 43.6500 -80.4333 47° Northeast 170 196 5,000  Level Toronto Center
Tue 08:10:25 PM 43.6833 -80.4000 36° Northeast 170 196 5,000  Level Toronto Center
Tue 08:11:25 PM 43.7167 -80.3500 47° Northeast 170 196 5,000  Level Toronto Center
Tue 08:12:25 PM 43.7500 -80.3000 47° Northeast 170 196 5,000  Level Toronto Center
Tue 08:13:25 PM 43.7833 -80.2500 47° Northeast 170 196 5,000  Level Toronto Center
Tue 08:14:25 PM 43.8167 -80.2167 36° Northeast 170 196 5,000 -150 Level Toronto Center
Tue 08:15:25 PM 43.8500 -80.1667 47° Northeast 180 207 4,700 -400 Descending Toronto Center
Tue 08:16:25 PM 43.8500 -80.0667 90° East 200 230 4,200 -500 Descending Toronto Center
Tue 08:17:25 PM 43.8667 -80.0333 55° Northeast 190 219 3,700 -500 Descending Toronto Center
Tue 08:18:25 PM 43.8833 -79.9500 74° East 190 219 3,200 -250 Descending Toronto Center
Tue 08:19:25 PM 43.9167 -79.8833 55° Northeast 180 207 3,200 -100 Level Toronto Center
Tue 08:20:25 PM 43.9333 -79.8167 71° East 170 196 3,000 -100 Descending Toronto Center
Tue 08:21:25 PM 43.9333 -79.7500 90° East 180 207 3,000  Level Toronto Center
Tue 08:22:25 PM 43.9500 -79.6833 71° East 180 207 3,000  Level Toronto Center
Tue 08:23:25 PM 43.9667 -79.6167 71° East 180 207 3,000  Level Toronto Center
Tue 08:24:25 PM 43.9833 -79.5667 65° Northeast 180 207 3,000  Level Toronto Center
Tue 08:25:25 PM 43.9500 -79.5000 125° Southeast 190 219 3,000  Level Toronto Center
Tue 08:26:25 PM 43.9167 -79.4500 133° Southeast 190 219 3,000 -250 Level Toronto Center
Tue 08:27:25 PM 43.9000 -79.3833 109° East 180 207 2,500 -200 Descending Toronto Center
Tue 08:28:25 PM 43.8667 -79.3333 133° Southeast 160 184 2,600 -450 Climbing Toronto Center
Tue 08:29:25 PM 43.8333 -79.3167 160° South 140 161 1,600 -800 Descending Toronto Center
Tue 08:30:25 PM 43.8333 -79.3333 270° West 110 127 1,000 -600 Descending Toronto Center

Login

Don't have an account? Register now (free) for customized features, flight alerts, and more!